Time;durP1;ratioP1;P1;durP2;ratioP2;P2;SDS_P1;SDS_P2;PMS_P1;PMS_P2;Temp;Humidity;BMP_temperature;BMP_pressure;BME280_temperature;BME280_humidity;BME280_pressure;Samples;Min_cycle;Max_cycle;Signal;HPM_P1;HPM_P2
2023/02/08 00:01:24;;;;;;;42.67;21.67;;;0.50;60.70;;;-4.82;97.72;97080.66;4971761;28;20026;-48
2023/02/08 00:03:59;;;;;;;45.25;21.75;;;0.50;60.80;;;-4.79;97.43;97072.59;4982584;28;20031;-51
2023/02/08 00:06:28;;;;;;;40.92;20.65;;;0.40;60.80;;;-4.82;96.98;97075.47;4964476;28;20065;-48
2023/02/08 00:08:54;;;;;;;39.55;20.48;;;0.40;60.80;;;-4.82;96.93;97075.47;4969385;28;20029;-48
2023/02/08 00:11:26;;;;;;;42.03;21.52;;;0.40;60.90;;;-4.85;97.79;97070.53;4972712;28;20434;-48
2023/02/08 00:13:55;;;;;;;40.20;22.25;;;0.40;60.90;;;-4.86;97.73;97059.28;4971115;28;20037;-48
2023/02/08 00:16:24;;;;;;;39.15;21.48;;;0.40;60.90;;;-4.88;97.43;97050.81;4965870;28;20125;-52
2023/02/08 00:18:52;;;;;;;38.53;21.23;;;0.40;61.00;;;-4.91;97.53;97051.88;4964740;28;20376;-48
2023/02/08 00:21:23;;;;;;;41.95;21.65;;;0.40;61.00;;;-4.94;97.83;97049.56;4978338;28;20030;-48
2023/02/08 00:23:56;;;;;;;39.53;21.75;;;0.30;61.00;;;-4.97;97.58;97049.00;4991520;28;20485;-48
2023/02/08 00:26:22;;;;;;;36.90;20.33;;;0.30;61.00;;;-4.98;96.97;97049.94;4974099;28;20030;-50
2023/02/08 00:28:54;;;;;;;38.33;20.13;;;0.30;61.00;;;-4.97;96.45;97047.22;4956850;28;20054;-49
2023/02/08 00:31:20;;;;;;;36.27;19.70;;;0.30;61.10;;;-5.01;96.35;97040.66;4950554;28;20137;-54
2023/02/08 00:33:49;;;;;;;36.70;19.15;;;0.30;61.00;;;-5.04;95.90;97037.50;4967980;28;20383;-49
2023/02/08 00:36:17;;;;;;;35.78;18.45;;;0.30;61.00;;;-5.03;95.16;97037.34;4987533;28;20049;-49
2023/02/08 00:38:46;;;;;;;30.40;17.35;;;0.30;61.10;;;-5.06;94.90;97032.41;4978720;28;20026;-49
2023/02/08 00:41:12;;;;;;;34.25;17.65;;;0.20;61.00;;;-5.02;94.47;97027.75;4984418;28;20030;-47
2023/02/08 00:43:41;;;;;;;32.53;17.17;;;0.20;61.10;;;-5.05;94.75;97023.66;4981761;28;20117;-47
2023/02/08 00:46:08;;;;;;;32.95;17.45;;;0.20;61.00;;;-5.02;94.86;97033.78;4955620;28;20022;-50
2023/02/08 00:48:40;;;;;;;33.10;16.92;;;0.20;61.00;;;-5.05;94.33;97033.22;4971778;28;20029;-46
2023/02/08 00:51:12;;;;;;;32.78;17.90;;;0.20;61.00;;;-5.07;93.92;97024.75;4968752;28;20484;-47
2023/02/08 00:53:42;;;;;;;;;;;0.20;61.00;;;-5.09;94.30;97027.47;4971492;28;20490;-49
2023/02/08 00:56:11;;;;;;;30.80;15.43;;;0.20;60.90;;;-5.11;94.20;97021.56;4972465;28;19910;-50
2023/02/08 00:58:38;;;;;;;32.40;17.02;;;0.10;60.90;;;-5.09;93.89;97022.28;4978958;28;20034;-49
2023/02/08 01:01:08;;;;;;;27.98;15.18;;;0.10;61.00;;;-5.14;94.11;97021.84;4982786;28;20026;-50
2023/02/08 01:03:37;;;;;;;30.50;16.65;;;0.10;61.00;;;-5.16;94.06;97015.97;4969327;28;20022;-47
2023/02/08 01:06:27;;;;;;;30.92;15.73;;;0.10;61.00;;;-5.17;93.74;97017.75;4969133;28;20498;-47
2023/02/08 01:08:53;;;;;;;30.17;14.05;;;0.10;61.00;;;-5.18;93.10;97010.88;4982332;28;20025;-47
2023/02/08 01:11:26;;;;;;;28.13;14.55;;;0.10;60.90;;;-5.23;93.56;97015.69;4969879;28;20029;-47
2023/02/08 01:13:57;;;;;;;28.67;15.52;;;0.00;60.90;;;-5.19;93.18;97011.84;4986722;28;20029;-47
2023/02/08 01:16:28;;;;;;;29.45;15.43;;;0.00;60.90;;;-5.23;93.14;97007.88;4980824;28;20034;-49
2023/02/08 01:18:58;;;;;;;27.58;15.23;;;0.10;61.00;;;-5.24;93.53;97006.22;4959152;28;20563;-50
2023/02/08 01:21:33;;;;;;;29.40;15.65;;;0.00;61.70;;;-5.26;93.55;97005.53;4976997;28;20125;-48
2023/02/08 01:24:05;;;;;;;35.13;17.23;;;0.00;61.00;;;-5.24;93.60;97003.63;4973519;28;20079;-47
2023/02/08 01:26:35;;;;;;;29.17;14.40;;;0.00;61.00;;;-5.23;93.09;97005.28;4969311;28;20026;-50
2023/02/08 01:29:03;;;;;;;29.25;14.25;;;0.00;61.10;;;-5.21;93.54;97000.75;4961922;28;20034;-47
2023/02/08 01:31:35;;;;;;;27.85;14.75;;;0.00;61.10;;;-5.17;93.10;97002.16;4970012;28;20069;-49
2023/02/08 01:34:04;;;;;;;26.50;14.60;;;0.00;61.20;;;-5.14;92.94;96991.50;4969280;28;20025;-47
2023/02/08 01:36:32;;;;;;;28.80;14.75;;;0.10;61.30;;;-5.05;92.79;96986.44;4989596;28;20113;-47
2023/02/08 01:38:59;;;;;;;32.63;15.60;;;0.10;61.30;;;-5.00;93.52;96982.50;4964910;28;20018;-47
2023/02/08 01:41:33;;;;;;;29.52;15.38;;;0.10;61.30;;;-5.00;93.58;96974.69;4982235;28;20590;-47
2023/02/08 01:44:11;;;;;;;28.85;14.90;;;0.20;62.20;;;-4.96;92.52;96980.44;4964799;28;20026;-47
2023/02/08 01:46:56;;;;;;;29.58;15.88;;;0.30;61.50;;;-4.87;93.02;96974.44;4981823;28;20121;-47
2023/02/08 01:49:38;;;;;;;27.88;14.38;;;0.30;61.40;;;-4.82;93.17;96977.47;4969799;28;20028;-51
2023/02/08 01:52:33;;;;;;;26.10;14.52;;;0.40;61.40;;;-4.79;92.06;96982.41;4968916;28;20034;-49
2023/02/08 01:55:21;;;;;;;29.58;15.00;;;0.40;61.50;;;-4.79;91.31;96982.41;4953372;28;20476;-47
2023/02/08 01:58:00;;;;;;;27.77;14.80;;;0.50;61.40;;;-4.77;91.29;96984.88;4954343;28;20083;-47
2023/02/08 02:00:38;;;;;;;29.80;14.30;;;0.50;61.30;;;-4.72;91.41;96986.09;4973665;28;20057;-48
2023/02/08 02:03:07;;;;;;;27.52;14.15;;;0.60;61.30;;;-4.69;91.36;96983.25;4969341;28;20104;-48
2023/02/08 02:06:00;;;;;;;27.25;13.82;;;0.60;61.20;;;-4.66;91.44;96989.94;4971743;28;20054;-47
2023/02/08 02:08:37;;;;;;;27.38;14.80;;;0.60;61.10;;;-4.68;91.51;96984.88;4970619;28;20034;-47
2023/02/08 02:11:03;;;;;;;27.38;14.93;;;0.70;61.00;;;-4.69;91.18;96985.84;4973544;28;20396;-46
2023/02/08 02:13:40;;;;;;;25.80;13.77;;;0.70;60.90;;;-4.74;90.31;96977.59;4965876;28;20030;-47
2023/02/08 02:16:09;;;;;;;25.30;12.40;;;0.70;60.90;;;-4.75;89.84;96973.38;4968519;28;20058;-47
2023/02/08 02:18:38;;;;;;;26.88;14.38;;;0.70;60.80;;;-4.72;91.04;96970.50;4968717;28;20065;-47
2023/02/08 02:21:48;;;;;;;29.00;14.30;;;0.70;60.80;;;-4.79;89.43;96976.41;4952474;28;20037;-49
2023/02/08 02:24:44;;;;;;;27.42;13.80;;;0.70;60.80;;;-4.73;90.13;96976.66;4961257;28;20030;-47
2023/02/08 02:27:56;;;;;;;26.98;13.88;;;0.70;60.70;;;-4.66;90.55;96972.56;4953816;28;20026;-47
2023/02/08 02:31:29;;;;;;;27.85;14.93;;;0.70;60.70;;;-4.65;90.22;96970.78;4996812;23;20077;-54
2023/02/08 02:34:31;;;;;;;26.67;13.27;;;0.80;60.80;;;-4.66;89.23;96977.78;4982998;28;20484;-52
2023/02/08 02:37:48;;;;;;;26.90;14.00;;;0.70;60.70;;;-4.62;89.78;96973.13;4978927;28;20056;-52
2023/02/08 02:40:45;;;;;;;27.50;14.80;;;0.70;60.60;;;-4.57;89.10;96964.91;4989654;28;20040;-53
2023/02/08 02:43:45;;;;;;;25.75;13.98;;;0.80;60.70;;;-4.58;89.18;96963.25;4988638;28;20171;-53
2023/02/08 02:46:46;;;;;;;24.20;13.27;;;0.80;60.60;;;-4.53;88.91;96966.28;4989179;28;20026;-52
2023/02/08 02:49:23;;;;;;;26.73;13.30;;;0.80;60.50;;;-4.52;89.09;96968.72;5004472;28;20098;-50
2023/02/08 02:52:16;;;;;;;27.17;14.07;;;0.80;60.40;;;-4.53;88.82;96961.06;5006495;28;20056;-50
2023/02/08 02:55:21;;;;;;;25.70;13.82;;;0.90;60.40;;;-4.51;88.64;96964.34;4957891;28;20027;-52
2023/02/08 02:57:59;;;;;;;26.17;13.43;;;0.90;60.40;;;-4.49;88.81;96967.63;4963836;28;20022;-52
2023/02/08 03:00:29;;;;;;;24.25;13.07;;;0.90;60.30;;;-4.50;88.43;96969.44;4984781;28;20026;-49
2023/02/08 03:02:57;;;;;;;28.10;13.13;;;0.90;60.20;;;-4.49;88.72;96973.66;4987910;28;20046;-52
2023/02/08 03:05:30;;;;;;;23.02;13.32;;;0.90;60.20;;;-4.55;87.79;96966.41;4997146;28;20112;-53
2023/02/08 03:08:40;;;;;;;27.13;14.48;;;0.90;60.10;;;-4.50;88.06;96964.22;5002438;28;20022;-52
2023/02/08 03:11:27;;;;;;;25.27;13.07;;;0.90;60.10;;;-4.52;88.30;96962.72;4993403;28;20512;-49
2023/02/08 03:14:33;;;;;;;24.00;12.88;;;0.90;60.00;;;-4.53;88.07;96961.06;5005279;28;20021;-52
2023/02/08 03:17:07;;;;;;;22.23;13.02;;;0.90;60.10;;;-4.49;87.96;96963.25;4995070;28;20029;-51
2023/02/08 03:20:17;;;;;;;24.48;13.00;;;0.90;60.10;;;-4.53;87.71;96961.06;4999617;28;20417;-53
2023/02/08 03:22:59;;;;;;;25.42;13.00;;;0.90;60.00;;;-4.46;88.20;96957.78;4984403;28;20030;-54
2023/02/08 03:26:11;;;;;;;26.60;13.45;;;0.90;60.00;;;-4.49;87.15;96960.66;4978887;28;20067;-50
2023/02/08 03:29:09;;;;;;;21.92;12.68;;;0.90;60.00;;;-4.49;87.18;96963.25;4990221;28;20025;-49
2023/02/08 03:32:07;;;;;;;25.05;12.25;;;0.90;60.00;;;-4.45;87.51;96963.78;4991416;28;20041;-53
2023/02/08 03:35:11;;;;;;;21.48;12.82;;;0.90;60.00;;;-4.43;86.55;96964.50;4974961;28;20026;-51
2023/02/08 03:37:49;;;;;;;24.65;12.88;;;0.90;60.00;;;-4.47;87.12;96966.56;4974411;28;20041;-51
2023/02/08 03:40:30;;;;;;;24.40;12.85;;;0.90;59.90;;;-4.45;87.13;96966.41;4994019;28;20029;-50
2023/02/08 03:43:48;;;;;;;23.58;12.48;;;0.90;59.90;;;-4.44;86.82;96960.25;4976897;28;20044;-54
2023/02/08 03:46:29;;;;;;;23.85;13.35;;;1.00;59.90;;;-4.54;86.05;96959.44;4967482;28;20060;-52
2023/02/08 03:49:19;;;;;;;25.50;12.43;;;0.90;59.80;;;-4.50;86.75;96966.00;4988977;28;20026;-54
2023/02/08 03:51:54;;;;;;;24.95;13.23;;;0.90;59.70;;;-4.46;87.35;96962.16;4983522;28;20021;-51
2023/02/08 03:54:30;;;;;;;22.60;12.52;;;0.90;59.70;;;-4.53;86.23;96953.28;4991251;28;20112;-54
2023/02/08 03:58:09;;;;;;;23.42;12.13;;;1.00;59.80;;;-4.61;86.65;96956.53;4984938;28;20108;-53
2023/02/08 04:00:48;;;;;;;24.05;12.05;;;1.00;59.70;;;-4.65;86.45;96958.59;4940140;28;20092;-50
2023/02/08 04:03:23;;;;;;;22.83;12.43;;;0.90;59.60;;;-4.60;86.95;96949.59;4986763;28;20499;-52
2023/02/08 04:05:50;;;;;;;23.75;12.15;;;0.90;59.70;;;-4.64;86.18;96943.81;4987828;28;20029;-52
2023/02/08 04:08:16;;;;;;;23.15;11.43;;;0.90;59.60;;;-4.62;86.30;96952.31;5005538;28;20024;-52
2023/02/08 04:10:47;;;;;;;22.15;11.75;;;0.90;59.60;;;-4.69;86.62;96952.03;4991243;28;20021;-51
2023/02/08 04:13:13;;;;;;;28.92;12.05;;;0.90;59.60;;;-4.64;86.56;96946.41;5009745;28;20502;-50
2023/02/08 04:15:38;;;;;;;23.45;12.45;;;0.90;59.60;;;-4.65;86.80;96940.41;4993083;28;20058;-51
2023/02/08 04:18:07;;;;;;;23.08;12.80;;;0.80;59.60;;;-4.68;86.52;96937.25;4990077;28;20268;-51
2023/02/08 04:20:33;;;;;;;24.67;13.43;;;0.80;59.60;;;-4.65;86.28;96937.78;4988364;28;20147;-54
2023/02/08 04:22:59;;;;;;;22.77;12.52;;;0.80;59.60;;;-4.66;86.82;96927.53;4989911;28;20034;-50
2023/02/08 04:25:28;;;;;;;26.42;12.50;;;0.90;59.60;;;-4.62;86.97;96930.69;4997336;28;20033;-50
2023/02/08 04:27:53;;;;;;;22.45;12.07;;;0.80;59.60;;;-4.67;86.66;96924.13;4985738;28;20087;-48
2023/02/08 04:30:19;;;;;;;26.92;12.52;;;0.80;59.60;;;-4.66;86.34;96930.16;4995429;28;20046;-51
2023/02/08 04:32:45;;;;;;;25.48;12.63;;;0.80;59.60;;;-4.63;86.68;96918.66;4995493;28;20022;-48
2023/02/08 04:35:16;;;;;;;24.90;12.35;;;0.80;59.60;;;-4.79;86.20;96922.63;5003134;28;20034;-47
2023/02/08 04:37:42;;;;;;;21.00;12.75;;;0.80;59.50;;;-4.73;86.83;96927.28;5000335;28;20025;-54
2023/02/08 04:40:09;;;;;;;24.45;12.45;;;0.80;59.50;;;-4.71;86.36;96916.72;4993629;28;20096;-53
2023/02/08 04:42:35;;;;;;;22.85;12.95;;;0.80;59.50;;;-4.68;86.43;96925.06;4979850;28;20018;-51
2023/02/08 04:45:04;;;;;;;23.88;13.27;;;0.80;59.50;;;-4.68;86.64;96917.25;4985123;28;20390;-53
2023/02/08 04:47:38;;;;;;;24.48;12.82;;;0.80;59.50;;;-4.59;86.79;96918.22;5003295;28;20383;-50
2023/02/08 04:50:05;;;;;;;28.45;13.15;;;0.80;59.60;;;-4.59;86.45;96918.22;4994077;28;20057;-54
2023/02/08 04:52:33;;;;;;;24.23;13.00;;;0.80;59.50;;;-4.58;86.30;96917.25;4996466;28;20498;-53
2023/02/08 04:54:59;;;;;;;25.75;13.48;;;0.80;59.60;;;-4.57;86.25;96918.09;4995048;28;20033;-52
2023/02/08 04:57:25;;;;;;;24.63;13.10;;;0.80;59.60;;;-4.60;86.62;96920.97;4997630;28;20526;-53
2023/02/08 04:59:54;;;;;;;24.48;12.80;;;0.90;59.60;;;-4.60;86.31;96919.19;4996575;28;20108;-49
2023/02/08 05:02:24;;;;;;;23.13;12.63;;;0.90;59.60;;;-4.59;86.66;96922.63;4980836;28;20044;-52
2023/02/08 05:04:53;;;;;;;22.98;12.63;;;0.80;59.50;;;-4.60;86.68;96918.38;5001869;28;20369;-49
2023/02/08 05:07:19;;;;;;;23.85;13.88;;;0.90;59.50;;;-4.59;86.73;96912.22;4990588;28;20022;-48
2023/02/08 05:09:45;;;;;;;28.33;12.90;;;0.90;59.60;;;-4.57;86.40;96912.91;4968593;28;20450;-50
2023/02/08 05:12:17;;;;;;;24.08;12.98;;;0.90;59.50;;;-4.60;85.97;96916.59;4994423;28;20444;-48
2023/02/08 05:15:00;;;;;;;24.38;12.52;;;0.90;59.50;;;-4.67;86.20;96911.13;4998655;28;20021;-52
2023/02/08 05:17:26;;;;;;;25.58;12.52;;;0.90;59.50;;;-4.66;86.79;96917.97;4984995;28;20570;-49
2023/02/08 05:19:52;;;;;;;27.08;13.90;;;0.90;59.50;;;-4.62;86.94;96910.69;5003634;28;20033;-49
2023/02/08 05:22:23;;;;;;;23.50;12.32;;;0.90;59.50;;;-4.63;85.84;96906.47;4991139;28;20511;-49
2023/02/08 05:27:40;;;;;;;25.38;13.35;;;0.80;59.40;;;-4.62;86.62;96909.88;4994720;28;20080;-48
2023/02/08 05:30:07;;;;;;;23.63;12.75;;;0.80;59.50;;;-4.68;86.33;96917.25;4990966;28;20303;-50
2023/02/08 05:32:36;;;;;;;22.95;12.70;;;0.80;59.40;;;-4.65;86.08;96916.19;4998064;28;20018;-53
2023/02/08 05:35:06;;;;;;;26.65;12.82;;;0.80;59.50;;;-4.60;86.75;96920.97;5009610;28;20029;-53
2023/02/08 05:37:42;;;;;;;26.58;13.93;;;0.80;59.40;;;-4.65;86.27;96917.00;4992710;28;20082;-51
2023/02/08 05:40:15;;;;;;;26.00;13.00;;;0.80;59.50;;;-4.65;86.58;96908.38;4995679;28;20029;-53
2023/02/08 05:42:41;;;;;;;25.65;12.15;;;0.80;59.40;;;-4.68;86.46;96909.47;5012128;28;20032;-54
2023/02/08 05:45:10;;;;;;;25.90;12.73;;;0.80;59.40;;;-4.72;86.08;96910.69;5020679;28;20063;-46
2023/02/08 05:47:39;;;;;;;27.58;14.02;;;0.80;59.40;;;-4.71;86.21;96916.72;4997328;28;20119;-50
2023/02/08 05:50:05;;;;;;;22.90;12.90;;;0.80;59.40;;;-4.74;86.90;96917.00;5018411;28;20487;-49
2023/02/08 05:52:34;;;;;;;24.33;13.15;;;0.80;59.40;;;-4.70;86.60;96914.00;4995661;28;20631;-51
2023/02/08 05:55:00;;;;;;;25.65;12.98;;;0.80;59.40;;;-4.69;85.93;96920.00;5028308;28;20035;-49
2023/02/08 05:57:29;;;;;;;24.42;13.02;;;0.80;59.40;;;-4.67;86.68;96915.47;5000440;28;20033;-54
2023/02/08 05:59:54;;;;;;;24.13;12.93;;;0.80;59.40;;;-4.67;86.40;96920.69;4993292;28;20029;-49
2023/02/08 06:02:23;;;;;;;23.27;12.77;;;0.80;59.40;;;-4.67;86.68;96920.69;5007809;28;20032;-51
2023/02/08 06:04:51;;;;;;;29.25;13.02;;;0.80;59.40;;;-4.66;86.78;96922.34;5011469;28;20032;-49
2023/02/08 06:07:20;;;;;;;24.38;12.52;;;0.80;59.40;;;-4.68;86.68;96927.66;5003021;28;20106;-54
2023/02/08 06:09:46;;;;;;;21.88;12.27;;;0.80;59.40;;;-4.67;86.91;96931.06;4997635;28;20029;-49
2023/02/08 06:12:12;;;;;;;23.67;12.15;;;0.80;59.40;;;-4.63;86.46;96937.66;4990906;28;20029;-51
2023/02/08 06:14:44;;;;;;;25.25;12.13;;;0.80;59.40;;;-4.60;86.63;96937.41;5018480;28;20553;-50
2023/02/08 06:17:09;;;;;;;23.55;12.60;;;0.80;59.40;;;-4.59;86.52;96939.03;4973772;28;20184;-53
2023/02/08 06:19:35;;;;;;;30.95;14.13;;;0.80;59.40;;;-4.51;86.52;96943.53;4989700;28;20040;-51
2023/02/08 06:22:01;;;;;;;25.80;12.32;;;0.80;59.50;;;-4.52;85.39;96942.72;4982815;28;20487;-53
2023/02/08 06:24:27;;;;;;;29.13;12.45;;;0.90;59.50;;;-4.50;85.03;96942.59;4990662;28;20059;-52
2023/02/08 06:26:56;;;;;;;26.95;12.18;;;0.90;59.40;;;-4.52;84.34;96949.72;4989385;28;20025;-49
2023/02/08 06:29:22;;;;;;;22.67;11.77;;;0.90;59.30;;;-4.55;83.91;96957.78;5000226;28;20600;-49
2023/02/08 06:31:47;;;;;;;26.70;13.18;;;0.90;59.30;;;-4.54;84.10;96959.44;5002133;28;20060;-50
2023/02/08 06:34:13;;;;;;;24.05;13.25;;;0.90;59.20;;;-4.56;83.46;96953.53;5001081;28;20017;-50
2023/02/08 06:36:39;;;;;;;22.42;11.95;;;0.90;59.80;;;-4.69;83.20;96962.44;4988351;28;20043;-48
2023/02/08 06:39:07;;;;;;;22.48;11.43;;;0.90;59.10;;;-4.67;83.09;96968.34;5005938;28;20120;-49
2023/02/08 06:41:33;;;;;;;25.95;11.63;;;0.90;59.00;;;-4.68;82.84;96968.44;5008054;28;20055;-49
2023/02/08 06:44:00;;;;;;;19.45;10.38;;;0.90;59.00;;;-4.66;83.18;96963.94;5004483;28;20017;-49
2023/02/08 06:46:26;;;;;;;22.48;11.18;;;0.80;58.90;;;-4.69;83.17;96965.03;5006721;28;20029;-52
2023/02/08 06:48:51;;;;;;;19.95;10.75;;;0.80;58.90;;;-4.71;82.82;96974.75;4990113;28;20036;-49
2023/02/08 06:51:20;;;;;;;24.48;11.68;;;0.80;58.90;;;-4.79;82.83;96963.41;5005703;28;20028;-49
2023/02/08 06:53:48;;;;;;;23.13;11.00;;;0.80;58.90;;;-4.78;83.22;96967.63;5007785;28;20037;-53
2023/02/08 06:56:14;;;;;;;19.73;11.48;;;0.80;58.80;;;-4.88;83.31;96972.81;5007625;28;20033;-54
2023/02/08 06:58:40;;;;;;;30.52;12.05;;;0.80;58.80;;;-4.85;83.35;96980.34;4991918;28;20029;-53
2023/02/08 07:01:15;;;;;;;21.95;11.23;;;0.70;58.80;;;-4.84;84.11;96978.56;5007146;28;20052;-51
2023/02/08 07:03:44;;;;;;;22.55;11.65;;;0.70;58.80;;;-4.80;84.26;96972.94;5004356;28;20017;-53
2023/02/08 07:06:17;;;;;;;21.17;11.55;;;0.70;58.90;;;-4.79;83.60;96979.81;5017439;28;20052;-50
2023/02/08 07:08:44;;;;;;;21.67;11.90;;;0.70;58.90;;;-4.79;83.34;96972.00;4974485;28;20124;-54
2023/02/08 07:11:18;;;;;;;23.55;11.27;;;0.70;58.80;;;-4.84;83.56;96974.19;5012009;28;20385;-51
2023/02/08 07:13:49;;;;;;;21.85;11.00;;;0.80;58.90;;;-4.82;83.36;96976.66;4996752;28;20095;-51
2023/02/08 07:16:18;;;;;;;22.83;11.52;;;0.80;58.80;;;-4.83;83.74;96975.81;4993763;28;20029;-52
2023/02/08 07:18:44;;;;;;;28.00;12.00;;;0.80;58.80;;;-4.81;83.09;96973.91;4960466;28;20033;-51
2023/02/08 07:21:11;;;;;;;21.05;11.45;;;0.80;58.80;;;-4.81;82.87;96973.09;4988645;28;20091;-51
2023/02/08 07:23:39;;;;;;;23.75;11.18;;;0.90;58.70;;;-4.81;82.69;96975.69;5019310;28;20068;-49
2023/02/08 07:26:13;;;;;;;23.55;11.68;;;0.90;59.20;;;-4.81;82.01;96978.28;4974354;28;20384;-49
2023/02/08 07:28:41;;;;;;;18.98;10.23;;;0.90;58.50;;;-4.83;81.81;96977.59;4981319;28;20026;-48
2023/02/08 07:31:12;;;;;;;19.35;11.10;;;1.00;58.40;;;-4.77;81.34;96985.69;5002836;28;20037;-49
2023/02/08 07:33:40;;;;;;;28.63;13.20;;;0.90;58.40;;;-4.79;80.60;96982.41;5006820;28;20463;-52
2023/02/08 07:36:09;;;;;;;26.42;12.70;;;1.00;58.30;;;-4.79;80.89;96979.81;4971136;28;20411;-52
2023/02/08 07:38:38;;;;;;;21.65;11.07;;;1.00;58.20;;;-4.79;80.31;96981.59;5014288;28;20510;-50
2023/02/08 07:41:10;;;;;;;26.90;11.45;;;1.00;58.10;;;-4.76;80.28;96976.94;4989855;28;20120;-49
2023/02/08 07:43:39;;;;;;;21.80;10.57;;;1.10;58.10;;;-4.67;80.75;96985.69;5000351;28;20078;-52
2023/02/08 07:46:26;;;;;;;20.17;11.77;;;1.10;58.00;;;-4.62;80.21;96977.50;4991392;28;20047;-53
2023/02/08 07:48:54;;;;;;;20.33;10.45;;;1.20;58.00;;;-4.57;79.33;96977.91;5006409;28;20044;-51
2023/02/08 07:51:20;;;;;;;23.02;11.32;;;1.20;57.90;;;-4.53;79.36;96974.09;4984077;28;20387;-50
2023/02/08 07:53:46;;;;;;;21.33;10.90;;;1.30;57.80;;;-4.43;79.72;96972.28;5025064;28;20029;-52
2023/02/08 07:56:16;;;;;;;22.25;10.82;;;1.40;57.70;;;-4.36;79.34;96975.97;4998867;28;20033;-49
2023/02/08 07:58:54;;;;;;;19.45;10.48;;;1.60;57.60;;;-4.32;79.38;96971.34;4977595;28;20032;-49
2023/02/08 08:01:22;;;;;;;21.98;10.52;;;1.70;57.40;;;-4.21;79.17;96968.59;5020226;28;20055;-47
2023/02/08 08:03:52;;;;;;;24.70;11.50;;;1.70;57.40;;;-4.24;78.39;96982.69;5010696;28;20029;-53
2023/02/08 08:06:22;;;;;;;18.73;10.75;;;1.80;57.30;;;-4.15;79.31;96978.44;5010568;28;20025;-55
2023/02/08 08:08:54;;;;;;;21.05;10.85;;;1.90;57.10;;;-4.15;78.71;96980.22;4994688;28;20021;-53
2023/02/08 08:11:21;;;;;;;21.95;12.35;;;1.90;57.00;;;-4.14;79.82;96984.47;4981992;28;20045;-49
2023/02/08 08:13:48;;;;;;;21.42;11.40;;;2.00;57.00;;;-4.11;79.50;96978.97;4986995;28;20079;-50
2023/02/08 08:16:15;;;;;;;21.52;11.70;;;2.00;56.90;;;-4.10;79.28;96985.84;5008262;28;20037;-50
2023/02/08 08:18:41;;;;;;;24.48;12.52;;;2.00;56.80;;;-4.06;79.83;96985.41;5006650;28;20048;-50
2023/02/08 08:21:16;;;;;;;21.55;11.45;;;2.10;56.80;;;-4.00;79.24;96990.06;5005386;28;20430;-49
2023/02/08 08:23:42;;;;;;;23.10;11.98;;;2.30;56.70;;;-3.95;78.23;96994.84;4991051;28;20405;-50
2023/02/08 08:26:20;;;;;;;24.40;11.85;;;2.40;56.60;;;-3.85;78.65;97000.06;4993216;28;20074;-51
2023/02/08 08:28:55;;;;;;;23.25;11.32;;;2.50;56.40;;;-3.79;77.88;96994.28;4993055;28;20026;-50
2023/02/08 08:31:22;;;;;;;20.88;11.25;;;2.70;56.30;;;-3.75;77.00;97001.69;5008331;28;20140;-45
2023/02/08 08:33:49;;;;;;;20.25;11.00;;;2.80;56.10;;;-3.54;77.36;97003.25;5020040;28;20032;-46
2023/02/08 08:36:33;;;;;;;19.88;11.18;;;3.00;56.00;;;-3.35;76.88;97003.22;5008488;28;20044;-45
2023/02/08 08:38:59;;;;;;;21.38;11.80;;;3.30;55.80;;;-3.21;75.87;97006.31;5016226;28;20023;-52
2023/02/08 08:41:44;;;;;;;23.17;12.00;;;3.50;55.60;;;-3.10;75.19;97004.34;4998900;28;20028;-50
2023/02/08 08:44:10;;;;;;;21.25;11.88;;;3.70;55.20;;;-3.07;75.14;97006.66;5015019;28;20028;-48
2023/02/08 08:46:35;;;;;;;23.63;12.20;;;4.00;55.10;;;-2.97;74.69;97009.22;5009132;28;20029;-48
2023/02/08 08:49:02;;;;;;;23.48;11.93;;;4.30;54.70;;;-2.97;73.88;97000.59;5010833;28;20031;-51
2023/02/08 08:51:27;;;;;;;21.55;12.15;;;4.50;54.30;;;-2.79;73.41;97001.41;5008114;28;20033;-48
2023/02/08 08:54:04;;;;;;;20.02;11.50;;;4.80;54.00;;;-2.73;73.43;97003.44;4993026;28;20029;-52
2023/02/08 08:56:31;;;;;;;22.90;12.35;;;5.00;53.60;;;-2.62;73.16;97008.47;4974520;28;20559;-48
2023/02/08 08:58:58;;;;;;;20.05;11.35;;;5.10;53.30;;;-2.71;72.20;97001.53;4979672;28;20029;-48
2023/02/08 09:01:27;;;;;;;19.83;11.52;;;5.30;53.00;;;-2.57;72.61;96997.56;5019858;28;20491;-50
2023/02/08 09:03:53;;;;;;;19.60;11.75;;;5.40;52.80;;;-2.22;71.60;97006.41;5011943;28;20071;-47
2023/02/08 09:06:19;;;;;;;21.05;12.45;;;5.60;52.60;;;-1.97;70.55;96995.19;5009674;28;20069;-51
2023/02/08 09:08:45;;;;;;;20.33;11.90;;;5.80;52.60;;;-1.84;70.14;97004.44;4991430;28;20360;-57
2023/02/08 09:11:14;;;;;;;21.95;12.90;;;6.00;52.40;;;-1.78;70.52;96993.38;4993390;28;20117;-48
2023/02/08 09:13:42;;;;;;;19.85;12.23;;;6.20;52.20;;;-1.95;70.28;97001.06;5025891;28;20495;-48
2023/02/08 09:16:19;;;;;;;21.60;12.55;;;6.30;51.90;;;-1.84;69.70;96999.22;5012762;28;20123;-54
2023/02/08 09:18:45;;;;;;;22.75;12.85;;;6.40;51.50;;;-1.59;69.76;97002.81;5010738;28;20119;-48
2023/02/08 09:21:20;;;;;;;22.40;12.25;;;6.50;51.50;;;-1.49;68.78;97008.75;5006679;28;20024;-48
2023/02/08 09:23:47;;;;;;;22.00;12.48;;;6.60;51.20;;;-1.38;68.36;97010.25;5016607;28;20391;-53
2023/02/08 09:26:18;;;;;;;22.52;13.20;;;6.70;51.10;;;-1.26;67.88;97014.25;5011351;28;20059;-52
2023/02/08 09:28:53;;;;;;;20.67;11.82;;;6.80;50.90;;;-1.24;68.35;97015.75;4999492;28;20060;-52
2023/02/08 09:31:31;;;;;;;20.38;12.57;;;6.80;50.60;;;-1.25;67.63;97016.72;4991074;28;20068;-51
2023/02/08 09:34:01;;;;;;;22.40;12.93;;;6.90;50.60;;;-1.35;67.15;97015.19;5002287;28;20044;-49
2023/02/08 09:36:35;;;;;;;19.95;11.50;;;6.90;50.40;;;-1.55;67.87;97022.44;5011240;28;20771;-59
2023/02/08 09:39:27;;;;;;;21.05;12.30;;;6.60;50.20;;;-1.82;68.62;97011.13;4996561;28;20021;-49
2023/02/08 09:42:29;;;;;;;19.90;10.90;;;6.50;50.00;;;-1.88;67.88;97020.41;4981747;28;20025;-49
2023/02/08 09:45:39;;;;;;;20.13;12.15;;;6.20;50.20;;;-1.95;69.29;97024.56;4987541;28;20045;-52
2023/02/08 09:48:39;;;;;;;24.67;13.07;;;5.90;50.40;;;-1.87;68.86;97013.38;4992988;28;20411;-49
2023/02/08 09:51:58;;;;;;;23.13;12.60;;;5.60;50.70;;;-2.10;69.10;97013.00;5007821;28;20480;-53
2023/02/08 09:54:42;;;;;;;22.30;11.90;;;5.40;50.80;;;-2.02;69.86;97023.53;5013834;28;20052;-55
2023/02/08 09:57:28;;;;;;;21.45;11.82;;;5.30;51.00;;;-2.00;69.42;97019.00;4978526;28;20029;-52
2023/02/08 10:00:21;;;;;;;21.60;11.88;;;5.30;51.20;;;-1.87;69.61;97016.00;4986887;28;20020;-49
2023/02/08 10:03:00;;;;;;;22.98;12.88;;;5.30;51.30;;;-1.98;69.80;97024.88;4987839;28;20055;-51
2023/02/08 10:05:30;;;;;;;23.80;12.43;;;5.20;51.40;;;-1.91;69.18;97023.31;5019255;28;20025;-51
2023/02/08 10:07:57;;;;;;;21.58;11.77;;;5.10;51.40;;;-1.73;69.99;97020.66;4974273;28;20425;-49
2023/02/08 10:11:35;;;;;;;23.65;12.00;;;5.20;51.60;;;-1.76;69.27;97020.97;4979548;28;20048;-50
2023/02/08 10:14:56;;;;;;;22.20;12.43;;;5.20;51.60;;;-1.81;69.71;97015.41;5009598;28;20499;-51
2023/02/08 10:18:17;;;;;;;25.45;12.45;;;5.30;51.60;;;-1.74;69.01;97023.44;5013485;28;20021;-55
2023/02/08 10:21:25;;;;;;;24.40;13.32;;;5.40;51.50;;;-2.05;69.76;97021.22;4999342;28;20516;-50
2023/02/08 10:24:49;;;;;;;21.88;11.90;;;5.40;51.40;;;-1.96;69.94;97030.78;5009349;28;20025;-54
2023/02/08 10:27:44;;;;;;;23.95;12.02;;;5.50;51.20;;;-1.68;69.16;97017.59;4960350;28;20033;-51
2023/02/08 10:30:37;;;;;;;20.52;12.02;;;5.80;51.30;;;-1.42;68.29;97028.06;4939353;28;21992;-51
2023/02/08 10:33:22;;;;;;;19.33;12.02;;;6.20;51.10;;;-1.45;68.25;97028.38;4989989;28;20121;-54
2023/02/08 10:35:56;;;;;;;24.00;13.50;;;6.50;50.80;;;-1.14;67.39;97020.03;4991427;28;20124;-54
2023/02/08 10:38:33;;;;;;;22.48;13.13;;;6.80;50.40;;;-1.21;67.02;97020.66;5013256;28;20017;-53
2023/02/08 10:41:03;;;;;;;22.02;12.82;;;6.90;50.20;;;-1.29;67.63;97022.41;4998725;28;20444;-58
2023/02/08 10:43:35;;;;;;;23.30;12.82;;;7.00;50.00;;;-2.10;69.63;97015.63;4980285;28;20045;-51
2023/02/08 10:46:30;;;;;;;21.70;13.15;;;6.80;49.40;;;-2.01;69.70;97016.53;5006709;28;20020;-56
2023/02/08 10:49:20;;;;;;;23.50;12.90;;;6.60;49.30;;;-1.65;70.19;97005.06;4993432;28;20398;-50
2023/02/08 10:51:47;;;;;;;21.77;12.73;;;6.50;49.40;;;-1.51;68.23;97008.06;5006396;28;20025;-51